createdAt,value
2023-02-28T00:00:21.839Z,6.55
2023-02-28T00:02:49.529Z,6.67
2023-02-28T00:05:19.069Z,6.70
2023-02-28T00:07:47.336Z,5.70
2023-02-28T00:10:21.724Z,5.90
2023-02-28T00:12:52.937Z,6.05
2023-02-28T00:15:21.074Z,6.36
2023-02-28T00:17:48.766Z,6.59
2023-02-28T00:20:16.647Z,6.71
2023-02-28T00:22:49.693Z,6.79
2023-02-28T00:25:19.823Z,6.58
2023-02-28T00:27:47.578Z,6.89
2023-02-28T00:30:17.521Z,7.01
2023-02-28T00:32:45.332Z,7.11
2023-02-28T00:35:13.366Z,6.48
2023-02-28T00:37:42.802Z,6.34
2023-02-28T00:40:10.988Z,6.43
2023-02-28T00:42:38.772Z,6.77
2023-02-28T00:45:07.238Z,6.74
2023-02-28T00:47:34.997Z,6.97
2023-02-28T00:50:03.280Z,6.82
2023-02-28T00:52:31.058Z,6.44
2023-02-28T00:54:58.796Z,6.29
2023-02-28T00:57:27.348Z,6.69
2023-02-28T00:59:58.074Z,6.79
2023-02-28T01:02:25.897Z,6.95
2023-02-28T01:04:54.736Z,6.90
2023-02-28T01:07:22.623Z,7.03
2023-02-28T01:09:50.405Z,7.17
2023-02-28T01:12:18.181Z,7.19
2023-02-28T01:14:48.385Z,7.03
2023-02-28T01:17:16.091Z,7.07
2023-02-28T01:19:43.797Z,6.79
2023-02-28T01:22:11.600Z,6.68
2023-02-28T01:24:39.258Z,6.78
2023-02-28T01:27:07.001Z,6.83
2023-02-28T01:29:34.699Z,7.04
2023-02-28T01:32:02.539Z,6.88
2023-02-28T01:34:30.252Z,7.12
2023-02-28T01:36:59.872Z,7.19
2023-02-28T01:39:27.727Z,6.80
2023-02-28T01:41:55.534Z,6.93
2023-02-28T01:45:00.937Z,6.98
2023-02-28T01:47:40.488Z,6.98
2023-02-28T01:50:16.402Z,6.88
2023-02-28T01:52:44.222Z,6.55
2023-02-28T01:55:11.948Z,6.86
2023-02-28T01:57:42.684Z,6.84
2023-02-28T02:00:16.157Z,7.10
2023-02-28T02:02:51.576Z,7.15
2023-02-28T02:05:23.884Z,7.07
2023-02-28T02:07:55.371Z,7.08
2023-02-28T02:10:33.893Z,7.08
2023-02-28T02:13:13.732Z,6.85
2023-02-28T02:16:01.409Z,6.87
2023-02-28T02:18:47.981Z,7.21
2023-02-28T02:21:36.742Z,7.00
2023-02-28T02:24:16.891Z,7.03
2023-02-28T02:27:00.221Z,7.14
2023-02-28T02:29:55.661Z,7.03
2023-02-28T02:32:44.959Z,6.91
2023-02-28T02:35:15.405Z,6.90
2023-02-28T02:38:31.597Z,6.97
2023-02-28T02:41:15.924Z,6.95
2023-02-28T02:43:53.878Z,6.92
2023-02-28T02:46:30.840Z,7.10
2023-02-28T02:49:01.381Z,7.03
2023-02-28T02:51:29.418Z,6.93
2023-02-28T02:54:16.853Z,6.98
2023-02-28T02:56:46.265Z,7.03
2023-02-28T02:59:15.119Z,7.04
2023-02-28T03:01:42.837Z,7.04
2023-02-28T03:04:14.194Z,7.02
2023-02-28T03:06:42.484Z,7.15
2023-02-28T03:09:10.781Z,6.28
2023-02-28T03:11:41.172Z,6.48
2023-02-28T03:14:15.519Z,6.89
2023-02-28T03:17:09.033Z,6.77
2023-02-28T03:19:54.117Z,6.99
2023-02-28T03:22:50.477Z,6.97
2023-02-28T03:25:38.196Z,7.03
2023-02-28T03:28:23.861Z,6.88
2023-02-28T03:31:27.813Z,6.89
2023-02-28T03:34:01.905Z,6.88
2023-02-28T03:36:31.302Z,6.73
2023-02-28T03:39:06.598Z,6.96
2023-02-28T03:41:39.915Z,6.94
2023-02-28T03:44:16.499Z,7.09
2023-02-28T03:46:49.309Z,7.07
2023-02-28T03:49:22.996Z,7.11
2023-02-28T03:51:50.964Z,6.96
2023-02-28T03:54:28.862Z,6.79
2023-02-28T03:57:23.335Z,6.88
2023-02-28T03:59:58.033Z,6.92
2023-02-28T04:02:25.887Z,6.94
2023-02-28T04:04:53.568Z,7.08
2023-02-28T04:07:21.298Z,7.08
2023-02-28T04:09:48.988Z,7.13
2023-02-28T04:12:16.717Z,7.09
2023-02-28T04:14:44.401Z,7.13
2023-02-28T04:17:12.116Z,7.08
2023-02-28T04:19:40.182Z,6.98
2023-02-28T04:22:09.197Z,7.10
2023-02-28T04:24:36.957Z,6.94
2023-02-28T04:27:04.994Z,7.02
2023-02-28T04:29:35.708Z,6.70
2023-02-28T04:32:03.797Z,6.62
2023-02-28T04:34:32.396Z,6.49
2023-02-28T04:37:14.668Z,6.58
2023-02-28T04:39:42.650Z,7.00
2023-02-28T04:42:10.969Z,7.10
2023-02-28T04:44:38.642Z,7.07
2023-02-28T04:47:06.528Z,7.00
2023-02-28T04:49:34.280Z,6.74
2023-02-28T04:52:01.995Z,6.83
2023-02-28T04:54:30.200Z,6.79
2023-02-28T04:56:58.472Z,6.50
2023-02-28T04:59:26.173Z,6.72
2023-02-28T05:01:53.951Z,6.54
2023-02-28T05:04:21.830Z,6.32
2023-02-28T05:06:49.514Z,6.78
2023-02-28T05:09:17.210Z,6.33
2023-02-28T05:11:44.866Z,6.65
2023-02-28T05:14:13.989Z,6.44
2023-02-28T05:16:41.667Z,6.68
2023-02-28T05:19:09.516Z,6.95
2023-02-28T05:21:38.237Z,6.79
2023-02-28T05:24:08.874Z,6.99
2023-02-28T05:26:37.503Z,7.00
2023-02-28T05:29:06.060Z,7.03
2023-02-28T05:31:34.180Z,7.05
2023-02-28T05:34:01.995Z,7.05
2023-02-28T05:36:29.684Z,6.83
2023-02-28T05:38:57.468Z,7.07
2023-02-28T05:41:25.191Z,7.08
2023-02-28T05:43:52.955Z,7.19
2023-02-28T05:46:20.677Z,7.10
2023-02-28T05:48:48.810Z,7.01
2023-02-28T05:51:16.725Z,7.04
2023-02-28T05:53:44.515Z,7.16
2023-02-28T05:56:12.218Z,7.15
2023-02-28T05:58:39.940Z,7.19
2023-02-28T06:01:37.682Z,7.11
2023-02-28T06:04:06.899Z,7.11
2023-02-28T06:06:38.026Z,7.11
2023-02-28T06:09:06.395Z,6.95
2023-02-28T06:11:34.163Z,7.21
2023-02-28T06:14:02.108Z,6.87
2023-02-28T06:16:30.428Z,6.92
2023-02-28T06:18:58.801Z,7.13
2023-02-28T06:21:28.525Z,6.93
2023-02-28T06:23:57.334Z,7.03
2023-02-28T06:26:25.034Z,7.23
2023-02-28T06:28:52.807Z,7.03
2023-02-28T06:31:20.695Z,7.20
2023-02-28T06:33:48.558Z,7.27
2023-02-28T06:36:16.372Z,7.17
2023-02-28T06:38:44.445Z,7.21
2023-02-28T06:41:12.207Z,7.10
2023-02-28T06:43:41.696Z,7.00
2023-02-28T06:46:11.520Z,7.20
2023-02-28T06:48:39.313Z,7.17
2023-02-28T06:51:15.705Z,7.08
2023-02-28T06:53:43.514Z,7.18
2023-02-28T06:56:12.901Z,7.06
2023-02-28T06:58:41.240Z,7.25
2023-02-28T07:01:09.238Z,7.39
2023-02-28T07:03:37.161Z,7.47
2023-02-28T07:06:06.069Z,7.44
2023-02-28T07:08:34.876Z,7.58
2023-02-28T07:11:02.722Z,7.49
2023-02-28T07:13:30.483Z,7.61
2023-02-28T07:15:59.724Z,7.60
2023-02-28T07:18:27.597Z,7.59
2023-02-28T07:20:55.301Z,6.75
2023-02-28T07:23:23.057Z,7.01
2023-02-28T07:25:51.484Z,6.71
2023-02-28T07:28:19.219Z,6.65
2023-02-28T07:30:46.953Z,6.93
2023-02-28T07:33:14.810Z,7.23
2023-02-28T07:35:42.641Z,7.14
2023-02-28T07:38:10.554Z,7.22
2023-02-28T07:40:38.260Z,7.24
2023-02-28T07:43:06.042Z,7.26
2023-02-28T07:45:35.477Z,6.80
2023-02-28T07:48:03.497Z,7.02
2023-02-28T07:50:31.927Z,7.34
2023-02-28T07:53:00.088Z,7.25
2023-02-28T07:55:28.024Z,6.57
2023-02-28T07:57:55.758Z,7.00
2023-02-28T08:00:24.133Z,7.12
2023-02-28T08:02:52.278Z,6.33
2023-02-28T08:05:22.009Z,6.91
2023-02-28T08:07:50.771Z,7.20
2023-02-28T08:59:05.316Z,7.08
2023-02-28T09:01:33.343Z,6.92
2023-02-28T09:04:02.734Z,7.48
2023-02-28T09:06:30.899Z,7.45
2023-02-28T09:09:02.311Z,7.49
2023-02-28T09:11:30.091Z,7.07
2023-02-28T09:13:59.623Z,7.42
2023-02-28T09:16:27.525Z,7.93
2023-02-28T09:18:55.316Z,7.84
2023-02-28T09:21:23.139Z,7.78
2023-02-28T09:23:51.182Z,7.76
2023-02-28T09:26:23.916Z,7.76
2023-02-28T09:28:51.891Z,7.43
2023-02-28T09:31:24.641Z,7.89
2023-02-28T09:33:54.176Z,7.25
2023-02-28T09:36:23.426Z,7.41
2023-02-28T09:38:54.065Z,7.36
2023-02-28T09:41:23.716Z,7.55
2023-02-28T09:43:55.070Z,7.71
2023-02-28T09:46:42.990Z,7.43
2023-02-28T09:49:18.749Z,7.25
2023-02-28T09:52:04.143Z,7.04
2023-02-28T09:54:33.089Z,7.07
2023-02-28T09:57:06.226Z,6.56
2023-02-28T09:59:39.841Z,6.46
2023-02-28T10:02:14.760Z,6.37
2023-02-28T10:04:58.673Z,6.69
2023-02-28T10:07:32.370Z,6.70
2023-02-28T10:10:00.523Z,6.43
2023-02-28T10:12:28.184Z,6.77
2023-02-28T10:14:55.894Z,7.03
2023-02-28T10:17:26.777Z,7.01
2023-02-28T10:20:01.704Z,5.98
2023-02-28T10:22:37.378Z,6.46
2023-02-28T10:25:21.934Z,6.87
2023-02-28T10:27:50.657Z,7.19
2023-02-28T10:30:18.358Z,7.44
2023-02-28T10:32:54.446Z,7.54
2023-02-28T10:35:26.342Z,7.72
2023-02-28T10:37:58.818Z,7.65
2023-02-28T10:40:30.693Z,7.45
2023-02-28T10:42:59.382Z,7.13
2023-02-28T10:45:27.779Z,7.16
2023-02-28T10:48:22.960Z,7.34
2023-02-28T10:50:54.438Z,7.02
2023-02-28T10:53:28.228Z,6.92
2023-02-28T10:56:07.596Z,6.88
2023-02-28T10:58:49.549Z,6.38
2023-02-28T11:01:38.035Z,6.99
2023-02-28T11:04:23.931Z,7.49
2023-02-28T11:07:01.792Z,6.89
2023-02-28T11:09:31.689Z,7.43
2023-02-28T11:11:59.384Z,7.34
2023-02-28T11:14:31.092Z,7.59
2023-02-28T11:17:01.944Z,7.42
2023-02-28T11:19:32.453Z,7.77
2023-02-28T11:22:01.753Z,7.72
2023-02-28T11:24:36.686Z,7.54
2023-02-28T11:27:04.523Z,7.55
2023-02-28T11:29:33.170Z,7.63
2023-02-28T11:32:10.022Z,7.08
2023-02-28T11:34:38.573Z,6.67
2023-02-28T11:37:09.408Z,7.02
2023-02-28T11:39:37.165Z,7.11
2023-02-28T11:42:27.606Z,7.09
2023-02-28T11:45:18.972Z,6.45
2023-02-28T11:47:58.567Z,6.54
2023-02-28T11:50:43.705Z,5.94
2023-02-28T11:53:30.990Z,5.93
2023-02-28T11:56:04.099Z,6.07
2023-02-28T11:58:40.800Z,6.41
2023-02-28T12:01:08.655Z,6.00
2023-02-28T12:04:07.521Z,6.24
2023-02-28T12:06:41.784Z,6.43
2023-02-28T12:09:22.012Z,6.66
2023-02-28T12:11:55.569Z,6.81
2023-02-28T12:14:50.488Z,6.84
2023-02-28T12:17:40.108Z,6.19
2023-02-28T12:20:13.920Z,5.92
2023-02-28T12:22:47.495Z,5.93
2023-02-28T12:25:37.064Z,6.41
2023-02-28T12:28:04.827Z,6.51
2023-02-28T12:30:34.484Z,6.46
2023-02-28T12:33:15.678Z,5.87
2023-02-28T12:35:50.979Z,5.99
2023-02-28T13:26:39.636Z,6.89
2023-02-28T13:29:19.096Z,7.15
2023-02-28T13:32:25.844Z,7.30
2023-02-28T13:34:53.646Z,7.35
2023-02-28T13:37:25.476Z,7.35
2023-02-28T13:40:01.143Z,7.15
2023-02-28T13:42:31.961Z,7.16
2023-02-28T13:45:02.615Z,7.16
2023-02-28T13:47:53.691Z,7.48
2023-02-28T13:50:27.364Z,7.49
2023-02-28T13:53:13.993Z,7.39
2023-02-28T13:55:54.165Z,7.51
2023-02-28T13:58:47.099Z,7.32
2023-02-28T14:01:39.204Z,7.40
2023-02-28T14:04:33.499Z,7.63
2023-02-28T14:07:01.479Z,7.49
2023-02-28T14:09:36.842Z,7.16
2023-02-28T14:12:42.008Z,6.37
2023-02-28T14:15:43.195Z,7.04
2023-02-28T14:18:30.489Z,7.40
2023-02-28T14:21:03.473Z,7.00
2023-02-28T14:23:43.402Z,7.24
2023-02-28T14:26:20.052Z,7.38
2023-02-28T14:29:04.884Z,7.46
2023-02-28T14:31:40.379Z,7.21
2023-02-28T14:34:18.430Z,7.24
2023-02-28T14:36:46.429Z,7.29
2023-02-28T14:39:32.149Z,7.00
2023-02-28T14:42:05.836Z,6.92
2023-02-28T14:44:33.608Z,6.89
2023-02-28T14:47:09.814Z,7.17
2023-02-28T14:49:40.309Z,6.68
2023-02-28T14:52:11.018Z,6.43
2023-02-28T14:54:39.075Z,6.78
2023-02-28T14:57:06.897Z,7.17
2023-02-28T14:59:36.162Z,6.96
2023-02-28T15:02:21.913Z,7.30
2023-02-28T15:05:31.925Z,7.19
2023-02-28T15:08:06.913Z,6.91
2023-02-28T15:10:34.764Z,7.30
2023-02-28T15:13:11.366Z,7.31
2023-02-28T15:16:24.113Z,7.23
2023-02-28T15:18:56.115Z,7.26
2023-02-28T15:21:32.131Z,7.25
2023-02-28T15:24:08.845Z,7.18
2023-02-28T15:26:41.030Z,7.13
2023-02-28T15:29:14.901Z,6.95
2023-02-28T15:31:56.992Z,6.71
2023-02-28T15:34:44.093Z,7.08
2023-02-28T15:37:33.819Z,7.13
2023-02-28T15:40:28.767Z,6.91
2023-02-28T15:43:00.178Z,6.69
2023-02-28T15:45:39.550Z,6.27
2023-02-28T15:48:14.644Z,6.30
2023-02-28T15:50:42.510Z,6.68
2023-02-28T15:53:15.079Z,6.20
2023-02-28T15:55:42.773Z,6.09
2023-02-28T15:58:12.097Z,6.17
2023-02-28T16:00:39.836Z,6.43
2023-02-28T16:03:35.597Z,6.37
2023-02-28T16:06:28.322Z,6.55
2023-02-28T16:08:57.181Z,6.29
2023-02-28T16:11:25.009Z,6.40
2023-02-28T16:13:52.812Z,6.68
2023-02-28T16:16:22.192Z,6.02
2023-02-28T16:18:49.961Z,6.06
2023-02-28T16:21:17.699Z,5.65
2023-02-28T16:23:45.485Z,5.94
2023-02-28T16:26:23.948Z,6.47
2023-02-28T16:28:52.138Z,6.39
2023-02-28T16:31:19.932Z,6.54
2023-02-28T16:33:47.817Z,6.49
2023-02-28T16:36:21.137Z,6.49
2023-02-28T16:38:48.995Z,6.68
2023-02-28T16:41:21.976Z,6.43
2023-02-28T16:43:51.228Z,6.74
2023-02-28T16:46:19.203Z,6.63
2023-02-28T16:48:47.489Z,6.55
2023-02-28T16:51:18.371Z,6.77
2023-02-28T16:53:46.420Z,6.79
2023-02-28T16:56:23.021Z,6.79
2023-02-28T16:58:50.894Z,6.35
2023-02-28T17:01:22.667Z,6.49
2023-02-28T17:03:50.726Z,6.88
2023-02-28T17:06:29.709Z,6.57
2023-02-28T17:08:58.707Z,6.29
2023-02-28T17:11:26.618Z,6.41
2023-02-28T17:13:57.327Z,6.09
2023-02-28T17:16:32.352Z,6.08
2023-02-28T17:19:05.408Z,6.15
2023-02-28T17:21:34.102Z,6.23
2023-02-28T17:24:01.830Z,6.16
2023-02-28T17:26:30.161Z,6.43
2023-02-28T17:28:58.504Z,6.57
2023-02-28T17:31:27.026Z,6.17
2023-02-28T17:33:57.590Z,6.27
2023-02-28T17:36:30.249Z,6.10
2023-02-28T17:38:59.500Z,6.12
2023-02-28T17:41:27.494Z,6.38
2023-02-28T17:43:56.231Z,6.36
2023-02-28T17:46:24.883Z,6.66
2023-02-28T17:48:53.602Z,6.60
2023-02-28T17:51:22.470Z,6.32
2023-02-28T17:53:50.200Z,6.28
2023-02-28T17:56:27.337Z,6.52
2023-02-28T17:58:56.347Z,6.39
2023-02-28T18:01:26.905Z,6.51
2023-02-28T18:03:56.576Z,6.62
2023-02-28T18:06:31.238Z,6.60
2023-02-28T18:08:59.264Z,6.63
2023-02-28T18:11:41.984Z,6.48
2023-02-28T18:14:09.946Z,6.48
2023-02-28T18:16:38.981Z,6.43
2023-02-28T18:19:07.176Z,6.26
2023-02-28T18:21:34.866Z,6.36
2023-02-28T18:24:02.647Z,6.29
2023-02-28T18:26:30.621Z,6.40
2023-02-28T18:28:58.674Z,6.25
2023-02-28T18:31:26.365Z,6.54
2023-02-28T18:33:54.154Z,6.24
2023-02-28T18:36:22.066Z,6.21
2023-02-28T18:38:50.573Z,5.92
2023-02-28T18:41:20.744Z,5.87
2023-02-28T18:43:48.788Z,5.94
2023-02-28T18:46:17.356Z,5.96
2023-02-28T18:48:45.375Z,5.95
2023-02-28T18:51:22.133Z,5.84
2023-02-28T18:53:49.876Z,5.84
2023-02-28T18:56:19.078Z,5.94
2023-02-28T18:58:46.794Z,5.97
2023-02-28T19:01:18.758Z,6.16
2023-02-28T19:03:46.783Z,5.86
2023-02-28T19:06:14.652Z,5.55
2023-02-28T19:08:42.412Z,5.74
2023-02-28T19:11:13.870Z,5.59
2023-02-28T19:13:41.904Z,5.65
2023-02-28T19:16:10.366Z,5.89
2023-02-28T19:18:38.218Z,5.76
2023-02-28T19:21:12.367Z,5.89
2023-02-28T19:23:40.271Z,5.99
2023-02-28T19:26:09.063Z,5.86
2023-02-28T19:28:36.788Z,5.96
2023-02-28T19:31:04.660Z,5.74
2023-02-28T19:33:32.385Z,5.80
2023-02-28T19:36:01.314Z,5.24
2023-02-28T19:38:29.027Z,5.25
2023-02-28T19:41:01.686Z,5.18
2023-02-28T19:43:29.990Z,5.12
2023-02-28T19:45:57.662Z,5.56
2023-02-28T19:48:27.962Z,5.77
2023-02-28T19:50:59.785Z,5.71
2023-02-28T19:53:29.535Z,5.67
2023-02-28T19:55:57.191Z,5.83
2023-02-28T19:58:24.915Z,5.87
2023-02-28T20:00:52.850Z,5.87
2023-02-28T20:03:20.768Z,6.05
2023-02-28T20:05:48.568Z,5.98
2023-02-28T20:08:16.254Z,5.91
2023-02-28T20:10:44.003Z,5.94
2023-02-28T20:13:11.694Z,5.92
2023-02-28T20:15:39.459Z,5.93
2023-02-28T20:18:07.137Z,5.77
2023-02-28T20:20:37.608Z,6.07
2023-02-28T20:23:05.410Z,6.18
2023-02-28T20:25:33.103Z,6.22
2023-02-28T20:28:00.785Z,5.87
2023-02-28T20:30:28.559Z,6.05
2023-02-28T20:32:56.270Z,5.86
2023-02-28T20:35:24.022Z,6.12
2023-02-28T20:37:51.722Z,6.08
2023-02-28T20:40:19.702Z,6.04
2023-02-28T20:42:47.428Z,6.20
2023-02-28T20:45:15.160Z,6.32
2023-02-28T20:47:43.671Z,6.11
2023-02-28T20:50:12.467Z,6.21
2023-02-28T20:52:40.224Z,5.73
2023-02-28T20:55:08.797Z,5.78
2023-02-28T20:57:36.560Z,5.87
2023-02-28T21:00:06.839Z,6.09
2023-02-28T21:02:34.557Z,6.09
2023-02-28T21:05:02.658Z,5.89
2023-02-28T21:07:30.529Z,5.67
2023-02-28T21:09:58.217Z,5.69
2023-02-28T21:12:25.921Z,5.81
2023-02-28T21:14:54.208Z,5.46
2023-02-28T21:17:21.893Z,5.49
2023-02-28T21:19:49.589Z,5.60
2023-02-28T21:22:17.288Z,5.84
2023-02-28T21:24:45.430Z,5.51
2023-02-28T21:27:13.216Z,5.71
2023-02-28T21:29:40.970Z,5.93
2023-02-28T21:32:08.725Z,6.04
2023-02-28T21:34:36.514Z,5.88
2023-02-28T21:37:05.080Z,5.84
2023-02-28T21:39:33.472Z,5.83
2023-02-28T21:42:03.623Z,5.89
2023-02-28T21:44:32.587Z,5.81
2023-02-28T21:47:03.245Z,5.71
2023-02-28T21:49:31.183Z,5.54
2023-02-28T21:51:58.889Z,5.18
2023-02-28T21:54:26.952Z,5.39
2023-02-28T21:56:55.339Z,5.19
2023-02-28T21:59:23.337Z,5.35
2023-02-28T22:01:51.748Z,5.46
2023-02-28T22:04:22.480Z,5.53
2023-02-28T22:06:54.779Z,5.10
2023-02-28T22:09:22.663Z,5.16
2023-02-28T22:11:50.556Z,5.00
2023-02-28T22:14:18.313Z,5.19
2023-02-28T22:16:55.217Z,5.03
2023-02-28T22:19:23.529Z,4.82
2023-02-28T22:21:51.731Z,5.14
2023-02-28T22:24:23.321Z,5.30
2023-02-28T22:26:51.502Z,5.20
2023-02-28T22:29:19.236Z,5.07
2023-02-28T22:31:47.174Z,5.08
2023-02-28T22:34:14.992Z,5.39
2023-02-28T22:36:42.850Z,5.17
2023-02-28T22:39:10.581Z,5.45
2023-02-28T22:41:38.827Z,5.23
2023-02-28T22:44:07.328Z,5.47
2023-02-28T22:46:35.852Z,5.38
2023-02-28T22:49:04.331Z,5.48
2023-02-28T22:51:32.112Z,5.54
2023-02-28T22:53:59.759Z,5.56
2023-02-28T22:56:28.950Z,5.29
2023-02-28T22:58:58.091Z,5.55
2023-02-28T23:01:27.252Z,4.94
2023-02-28T23:03:55.143Z,5.38
2023-02-28T23:06:23.758Z,4.88
2023-02-28T23:08:52.394Z,5.36
2023-02-28T23:11:24.676Z,5.43
2023-02-28T23:13:58.847Z,5.39
2023-02-28T23:16:27.441Z,5.31
2023-02-28T23:18:55.188Z,5.46
2023-02-28T23:21:23.134Z,5.12
2023-02-28T23:23:50.806Z,5.37
2023-02-28T23:26:18.621Z,5.39
2023-02-28T23:28:46.354Z,5.08
2023-02-28T23:31:14.039Z,5.17
2023-02-28T23:33:41.797Z,4.90
2023-02-28T23:36:18.732Z,4.67
2023-02-28T23:38:47.823Z,5.10
2023-02-28T23:41:15.672Z,5.19
2023-02-28T23:43:43.821Z,5.31
2023-02-28T23:46:12.472Z,4.98
2023-02-28T23:48:40.343Z,5.08
2023-02-28T23:51:19.224Z,5.12
2023-02-28T23:53:48.349Z,5.24
2023-02-28T23:56:19.338Z,5.21
2023-02-28T23:58:47.487Z,5.11
